createdAt,value
2023-04-16T00:01:04.219Z,1.20
2023-04-16T00:03:32.485Z,1.30
2023-04-16T00:06:00.830Z,1.50
2023-04-16T00:08:28.749Z,1.75
2023-04-16T00:10:56.689Z,1.70
2023-04-16T00:13:28.116Z,1.50
2023-04-16T00:15:56.014Z,1.55
2023-04-16T00:18:23.819Z,2.33
2023-04-16T00:20:52.164Z,2.40
2023-04-16T00:23:20.337Z,2.40
2023-04-16T00:25:48.254Z,2.00
2023-04-16T00:28:16.113Z,2.30
2023-04-16T00:30:44.129Z,2.30
2023-04-16T00:33:14.397Z,2.25
2023-04-16T00:35:42.249Z,2.80
2023-04-16T00:38:10.099Z,2.47
2023-04-16T00:40:38.397Z,2.47
2023-04-16T00:43:06.405Z,2.70
2023-04-16T00:45:34.610Z,3.17
2023-04-16T00:48:03.273Z,3.00
2023-04-16T00:50:31.311Z,3.22
2023-04-16T00:52:59.359Z,2.85
2023-04-16T00:55:27.206Z,3.03
2023-04-16T00:57:55.106Z,2.95
2023-04-16T01:00:23.063Z,2.80
2023-04-16T01:02:54.964Z,3.42
2023-04-16T01:05:23.056Z,3.00
2023-04-16T01:07:51.366Z,3.50
2023-04-16T01:10:19.414Z,3.25
2023-04-16T01:12:47.396Z,3.20
2023-04-16T01:15:15.394Z,3.08
2023-04-16T01:17:46.374Z,3.03
2023-04-16T01:20:14.732Z,2.65
2023-04-16T01:22:42.956Z,2.65
2023-04-16T01:25:14.661Z,3.30
2023-04-16T01:27:42.535Z,3.00
2023-04-16T01:30:10.761Z,3.20
2023-04-16T01:32:52.241Z,3.08
2023-04-16T01:35:20.189Z,3.10
2023-04-16T01:37:50.300Z,2.95
2023-04-16T01:40:18.859Z,3.15
2023-04-16T01:42:46.719Z,2.90
2023-04-16T01:45:14.772Z,3.30
2023-04-16T01:47:45.563Z,3.30
2023-04-16T01:50:13.524Z,2.80
2023-04-16T01:52:41.431Z,2.92
2023-04-16T01:55:10.049Z,2.90
2023-04-16T01:57:38.706Z,3.45
2023-04-16T02:00:08.583Z,2.65
2023-04-16T02:02:46.882Z,3.15
2023-04-16T02:05:20.890Z,2.92
2023-04-16T02:07:48.756Z,2.80
2023-04-16T02:10:17.625Z,2.85
2023-04-16T02:12:46.435Z,3.20
2023-04-16T02:15:16.476Z,3.10
2023-04-16T02:17:46.790Z,3.05
2023-04-16T02:20:14.852Z,3.38
2023-04-16T02:22:49.742Z,2.95
2023-04-16T02:25:20.806Z,2.92
2023-04-16T02:27:51.570Z,3.22
2023-04-16T02:30:34.060Z,3.38
2023-04-16T02:33:05.598Z,3.78
2023-04-16T02:35:35.354Z,2.90
2023-04-16T02:38:04.485Z,3.20
2023-04-16T02:40:32.835Z,3.22
2023-04-16T02:43:01.225Z,3.65
2023-04-16T02:45:29.290Z,2.95
2023-04-16T02:47:57.232Z,3.00
2023-04-16T02:50:25.057Z,3.45
2023-04-16T02:52:52.973Z,2.78
2023-04-16T02:55:20.880Z,3.47
2023-04-16T02:57:48.780Z,3.55
2023-04-16T03:00:16.806Z,3.33
2023-04-16T03:02:44.829Z,3.55
2023-04-16T03:05:12.969Z,3.80
2023-04-16T03:07:41.036Z,4.15
2023-04-16T03:10:09.375Z,3.63
2023-04-16T03:12:37.317Z,3.42
2023-04-16T03:15:08.268Z,3.85
2023-04-16T03:17:36.483Z,3.33
2023-04-16T03:20:05.287Z,3.63
2023-04-16T03:22:33.167Z,3.25
2023-04-16T03:25:01.484Z,3.90
2023-04-16T03:27:29.417Z,4.10
2023-04-16T03:29:57.406Z,3.83
2023-04-16T03:32:26.185Z,4.35
2023-04-16T03:34:54.276Z,3.70
2023-04-16T03:37:24.371Z,4.10
2023-04-16T03:39:52.504Z,3.53
2023-04-16T03:42:20.310Z,3.95
2023-04-16T03:44:48.239Z,3.67
2023-04-16T03:47:17.330Z,3.65
2023-04-16T03:49:46.691Z,3.30
2023-04-16T03:52:14.753Z,3.53
2023-04-16T03:54:42.983Z,3.88
2023-04-16T03:57:28.635Z,3.80
2023-04-16T04:00:02.234Z,3.20
2023-04-16T04:02:42.170Z,3.75
2023-04-16T04:05:17.655Z,4.47
2023-04-16T04:07:46.939Z,3.38
2023-04-16T04:10:16.390Z,3.90
2023-04-16T04:12:44.474Z,3.22
2023-04-16T04:15:13.287Z,4.15
2023-04-16T04:17:43.372Z,3.58
2023-04-16T04:20:12.160Z,3.30
2023-04-16T04:22:41.788Z,3.90
2023-04-16T04:25:11.171Z,3.60
2023-04-16T04:27:39.205Z,3.53
2023-04-16T04:30:08.516Z,3.70
2023-04-16T04:32:36.642Z,3.63
2023-04-16T04:35:04.713Z,3.55
2023-04-16T04:37:32.623Z,3.65
2023-04-16T04:40:04.409Z,3.30
2023-04-16T04:42:32.342Z,4.20
2023-04-16T04:45:00.109Z,3.63
2023-04-16T04:47:29.425Z,2.97
2023-04-16T04:49:57.320Z,3.50
2023-04-16T04:52:26.082Z,3.60
2023-04-16T04:54:54.075Z,3.38
2023-04-16T04:57:22.055Z,3.30
2023-04-16T04:59:52.781Z,3.30
2023-04-16T05:02:21.139Z,3.50
2023-04-16T05:04:49.149Z,3.20
2023-04-16T05:07:17.104Z,3.25
2023-04-16T05:09:45.048Z,3.60
2023-04-16T05:12:12.987Z,3.35
2023-04-16T05:14:40.943Z,2.70
2023-04-16T05:17:08.994Z,3.22
2023-04-16T05:19:37.255Z,3.22
2023-04-16T05:22:05.286Z,2.97
2023-04-16T05:24:33.094Z,2.92
2023-04-16T05:27:01.563Z,2.70
2023-04-16T05:29:29.442Z,3.00
2023-04-16T05:31:57.336Z,2.88
2023-04-16T05:34:25.118Z,2.80
2023-04-16T05:36:52.926Z,2.70
2023-04-16T05:39:21.394Z,2.15
2023-04-16T05:41:49.267Z,2.42
2023-04-16T05:44:17.167Z,2.92
2023-04-16T05:46:45.154Z,2.40
2023-04-16T05:49:13.101Z,2.92
2023-04-16T05:51:41.153Z,2.40
2023-04-16T05:54:09.069Z,2.70
2023-04-16T05:56:36.896Z,3.00
2023-04-16T05:59:04.721Z,3.00
2023-04-16T06:01:34.488Z,2.80
2023-04-16T06:04:02.684Z,2.58
2023-04-16T06:06:30.908Z,2.55
2023-04-16T06:08:58.900Z,3.33
2023-04-16T06:11:27.700Z,2.65
2023-04-16T06:13:55.630Z,2.72
2023-04-16T06:16:23.586Z,3.25
2023-04-16T06:18:51.493Z,2.80
2023-04-16T06:21:19.529Z,3.40
2023-04-16T06:23:47.420Z,3.72
2023-04-16T06:26:15.293Z,4.10
2023-04-16T06:28:43.383Z,3.80
2023-04-16T06:31:14.325Z,4.07
2023-04-16T06:33:42.276Z,4.40
2023-04-16T06:36:11.656Z,4.22
2023-04-16T06:38:40.180Z,4.30
2023-04-16T06:41:08.410Z,4.30
2023-04-16T06:43:36.440Z,4.35
2023-04-16T06:46:05.448Z,3.95
2023-04-16T06:48:33.254Z,3.45
2023-04-16T06:51:01.612Z,4.15
2023-04-16T06:53:29.449Z,3.88
2023-04-16T06:55:57.366Z,4.20
2023-04-16T06:58:25.437Z,3.63
2023-04-16T07:00:53.442Z,4.40
2023-04-16T07:03:21.547Z,4.15
2023-04-16T07:05:49.560Z,3.67
2023-04-16T07:08:17.636Z,3.60
2023-04-16T07:10:50.052Z,3.75
2023-04-16T07:13:18.970Z,3.85
2023-04-16T07:15:49.109Z,4.07
2023-04-16T07:18:17.309Z,4.10
2023-04-16T07:20:46.084Z,3.20
2023-04-16T07:23:14.024Z,3.67
2023-04-16T07:25:42.476Z,3.60
2023-04-16T07:28:10.404Z,3.80
2023-04-16T07:30:38.295Z,3.95
2023-04-16T07:33:06.310Z,3.90
2023-04-16T07:35:34.147Z,4.15
2023-04-16T07:38:02.058Z,4.43
2023-04-16T07:40:30.138Z,4.15
2023-04-16T07:42:58.046Z,4.45
2023-04-16T07:45:26.707Z,4.10
2023-04-16T07:47:54.560Z,4.00
2023-04-16T07:50:22.506Z,4.05
2023-04-16T07:52:50.408Z,4.32
2023-04-16T07:55:20.896Z,4.28
2023-04-16T07:57:48.875Z,3.95
2023-04-16T08:00:16.948Z,3.95
2023-04-16T08:02:45.231Z,4.25
2023-04-16T08:05:13.566Z,4.05
2023-04-16T08:07:41.512Z,4.25
2023-04-16T08:10:09.750Z,3.60
2023-04-16T08:12:37.821Z,3.45
2023-04-16T08:15:06.543Z,3.53
2023-04-16T08:17:35.128Z,3.40
2023-04-16T08:20:03.017Z,3.63
2023-04-16T08:22:31.513Z,4.03
2023-04-16T08:24:59.507Z,3.20
2023-04-16T08:27:27.402Z,3.83
2023-04-16T08:29:55.304Z,4.28
2023-04-16T08:32:23.227Z,3.30
2023-04-16T08:34:51.412Z,3.53
2023-04-16T08:37:19.393Z,3.97
2023-04-16T08:39:48.314Z,3.50
2023-04-16T08:42:33.490Z,3.92
2023-04-16T08:45:27.838Z,3.88
2023-04-16T08:47:56.087Z,4.18
2023-04-16T08:50:25.668Z,3.88
2023-04-16T08:52:59.048Z,3.03
2023-04-16T08:55:36.488Z,2.67
2023-04-16T08:58:13.648Z,2.60
2023-04-16T09:00:43.778Z,2.13
2023-04-16T09:03:12.707Z,2.58
2023-04-16T09:05:42.033Z,1.92
2023-04-16T09:08:10.444Z,1.92
2023-04-16T09:10:38.350Z,2.53
2023-04-16T09:13:06.342Z,2.42
2023-04-16T09:15:35.696Z,2.42
2023-04-16T09:18:03.840Z,2.53
2023-04-16T09:20:31.772Z,3.03
2023-04-16T09:22:59.689Z,3.00
2023-04-16T09:25:27.972Z,2.17
2023-04-16T09:27:55.970Z,1.70
2023-04-16T09:30:26.291Z,1.88
2023-04-16T09:33:16.934Z,1.50
2023-04-16T09:35:47.778Z,1.50
2023-04-16T09:38:16.097Z,1.80
2023-04-16T09:40:44.215Z,1.80
2023-04-16T09:43:16.769Z,1.50
2023-04-16T09:45:55.755Z,1.77
2023-04-16T09:48:31.193Z,2.30
2023-04-16T09:51:00.549Z,1.88
2023-04-16T09:53:32.053Z,1.60
2023-04-16T09:56:03.665Z,1.50
2023-04-16T09:58:31.891Z,1.83
2023-04-16T10:01:03.984Z,1.63
2023-04-16T10:03:33.402Z,1.55
2023-04-16T10:06:07.786Z,1.58
2023-04-16T10:08:36.444Z,2.05
2023-04-16T10:11:04.729Z,2.00
2023-04-16T10:13:32.698Z,1.60
2023-04-16T10:16:00.910Z,1.50
2023-04-16T10:18:29.451Z,1.30
2023-04-16T10:20:57.837Z,1.25
2023-04-16T10:23:26.878Z,1.20
2023-04-16T10:25:57.544Z,1.30
2023-04-16T10:28:25.921Z,0.90
2023-04-16T10:30:55.106Z,1.60
2023-04-16T10:33:26.275Z,1.50
2023-04-16T10:36:11.925Z,1.85
2023-04-16T10:38:51.248Z,1.60
2023-04-16T10:41:22.683Z,1.30
2023-04-16T10:43:51.731Z,1.00
2023-04-16T10:46:30.761Z,1.50
2023-04-16T10:49:03.343Z,1.10
2023-04-16T10:51:33.151Z,1.60
2023-04-16T10:54:17.098Z,3.70
2023-04-16T10:56:46.634Z,1.48
2023-04-16T10:59:19.094Z,1.70
2023-04-16T11:01:49.108Z,1.10
2023-04-16T11:04:20.051Z,1.38
2023-04-16T11:07:16.814Z,1.80
2023-04-16T11:09:47.799Z,1.88
2023-04-16T11:12:18.893Z,1.73
2023-04-16T11:15:06.523Z,1.55
2023-04-16T11:17:48.401Z,1.48
2023-04-16T11:20:20.144Z,1.50
2023-04-16T11:22:50.207Z,1.58
2023-04-16T11:25:25.615Z,1.50
2023-04-16T11:27:54.937Z,2.00
2023-04-16T11:30:36.147Z,2.72
2023-04-16T11:33:09.760Z,1.75
2023-04-16T11:35:41.696Z,1.40
2023-04-16T11:38:09.698Z,2.05
2023-04-16T11:40:37.877Z,2.42
2023-04-16T11:43:16.406Z,1.65
2023-04-16T11:46:12.830Z,1.88
2023-04-16T11:48:55.687Z,2.00
2023-04-16T11:51:24.046Z,2.22
2023-04-16T11:53:54.040Z,2.22
2023-04-16T11:56:29.693Z,2.00
2023-04-16T11:59:12.552Z,1.88
2023-04-16T12:01:42.772Z,2.05
2023-04-16T12:04:10.974Z,1.95
2023-04-16T12:06:38.959Z,2.30
2023-04-16T12:09:28.015Z,2.20
2023-04-16T12:11:56.206Z,3.05
2023-04-16T12:14:24.524Z,2.75
2023-04-16T12:16:52.648Z,2.67
2023-04-16T12:19:20.599Z,2.30
2023-04-16T12:21:50.533Z,2.30
2023-04-16T12:24:24.378Z,2.35
2023-04-16T12:27:03.331Z,2.78
2023-04-16T12:29:32.032Z,2.20
2023-04-16T12:31:59.932Z,2.03
2023-04-16T12:34:47.940Z,2.53
2023-04-16T12:37:16.110Z,2.58
2023-04-16T12:39:44.613Z,3.40
2023-04-16T12:42:14.340Z,2.90
2023-04-16T12:44:42.547Z,2.35
2023-04-16T12:47:10.678Z,3.10
2023-04-16T12:49:38.725Z,6.68
2023-04-16T12:52:07.127Z,3.55
2023-04-16T12:54:35.040Z,4.55
2023-04-16T12:57:03.724Z,3.40
2023-04-16T12:59:31.629Z,2.83
2023-04-16T13:02:01.766Z,2.78
2023-04-16T13:04:29.869Z,3.10
2023-04-16T13:06:58.313Z,2.90
2023-04-16T13:09:26.246Z,2.53
2023-04-16T13:11:54.108Z,2.28
2023-04-16T13:14:21.991Z,2.40
2023-04-16T13:16:49.875Z,2.10
2023-04-16T13:19:19.280Z,2.25
2023-04-16T13:21:47.299Z,2.05
2023-04-16T13:24:15.312Z,2.15
2023-04-16T13:26:43.592Z,2.40
2023-04-16T13:29:11.974Z,2.90
2023-04-16T13:31:41.052Z,2.85
2023-04-16T13:34:09.142Z,2.33
2023-04-16T13:36:37.639Z,2.08
2023-04-16T13:39:10.922Z,2.40
2023-04-16T13:41:39.828Z,2.53
2023-04-16T13:44:07.937Z,2.45
2023-04-16T13:46:35.984Z,2.78
2023-04-16T13:49:04.055Z,2.40
2023-04-16T13:51:32.960Z,2.42
2023-04-16T13:54:03.547Z,2.60
2023-04-16T13:56:31.523Z,2.58
2023-04-16T13:58:59.449Z,2.47
2023-04-16T14:01:27.369Z,2.85
2023-04-16T14:03:55.392Z,2.22
2023-04-16T14:06:23.297Z,1.88
2023-04-16T14:08:51.188Z,2.70
2023-04-16T14:11:19.127Z,2.28
2023-04-16T14:13:47.072Z,2.55
2023-04-16T14:16:15.818Z,2.35
2023-04-16T14:18:43.737Z,2.50
2023-04-16T14:21:11.596Z,2.15
2023-04-16T14:23:40.520Z,2.63
2023-04-16T14:26:08.667Z,2.63
2023-04-16T14:28:36.488Z,2.53
2023-04-16T14:31:04.330Z,2.20
2023-04-16T14:33:32.571Z,2.38
2023-04-16T14:36:02.664Z,2.60
2023-04-16T14:38:32.121Z,2.78
2023-04-16T14:41:00.694Z,3.33
2023-04-16T14:43:28.529Z,2.85
2023-04-16T14:45:58.712Z,2.55
2023-04-16T14:48:26.766Z,3.00
2023-04-16T14:50:54.710Z,2.60
2023-04-16T14:53:24.311Z,2.97
2023-04-16T14:55:53.495Z,2.85
2023-04-16T14:58:22.098Z,3.25
2023-04-16T15:00:49.970Z,3.13
2023-04-16T15:03:19.051Z,2.92
2023-04-16T15:05:52.418Z,3.30
2023-04-16T15:08:20.413Z,2.83
2023-04-16T15:10:48.253Z,3.08
2023-04-16T15:13:16.508Z,2.42
2023-04-16T15:15:44.922Z,2.95
2023-04-16T15:18:12.844Z,2.85
2023-04-16T15:20:41.482Z,3.17
2023-04-16T15:23:09.301Z,3.20
2023-04-16T15:25:37.269Z,2.80
2023-04-16T15:28:06.665Z,2.97
2023-04-16T15:30:34.579Z,2.78
2023-04-16T15:33:04.008Z,2.80
2023-04-16T15:35:31.914Z,3.08
2023-04-16T15:37:59.773Z,2.92
2023-04-16T15:40:27.815Z,2.95
2023-04-16T15:42:56.545Z,3.00
2023-04-16T15:45:25.535Z,3.03
2023-04-16T15:47:53.555Z,2.53
2023-04-16T15:50:22.100Z,2.33
2023-04-16T15:52:50.411Z,2.58
2023-04-16T15:55:21.357Z,2.72
2023-04-16T15:57:49.203Z,2.55
2023-04-16T16:00:20.082Z,2.65
2023-04-16T16:02:48.142Z,2.33
2023-04-16T16:05:17.101Z,2.40
2023-04-16T16:07:45.319Z,2.05
2023-04-16T16:10:13.551Z,2.38
2023-04-16T16:12:43.696Z,2.85
2023-04-16T16:15:11.669Z,2.40
2023-04-16T16:17:41.429Z,2.40
2023-04-16T16:20:10.767Z,2.28
2023-04-16T16:22:39.398Z,2.33
2023-04-16T16:25:07.671Z,2.53
2023-04-16T16:27:38.572Z,2.55
2023-04-16T16:30:07.800Z,2.22
2023-04-16T16:32:36.223Z,2.38
2023-04-16T16:35:04.587Z,2.50
2023-04-16T16:37:32.436Z,1.98
2023-04-16T16:40:00.292Z,2.55
2023-04-16T16:42:28.359Z,1.95
2023-04-16T16:44:57.605Z,2.55
2023-04-16T16:47:26.108Z,2.10
2023-04-16T16:50:03.016Z,2.10
2023-04-16T16:52:31.420Z,1.88
2023-04-16T16:54:59.423Z,1.52
2023-04-16T16:57:27.396Z,1.55
2023-04-16T16:59:55.372Z,1.52
2023-04-16T17:02:23.447Z,1.58
2023-04-16T17:04:52.942Z,1.45
2023-04-16T17:07:21.159Z,1.40
2023-04-16T17:09:49.174Z,1.27
2023-04-16T17:12:17.137Z,1.33
2023-04-16T17:14:49.603Z,1.23
2023-04-16T17:17:17.869Z,1.25
2023-04-16T17:19:45.728Z,1.15
2023-04-16T17:22:13.600Z,1.00
2023-04-16T17:24:41.731Z,1.02
2023-04-16T17:27:09.629Z,1.00
2023-04-16T17:29:37.481Z,1.40
2023-04-16T17:32:05.714Z,0.93
2023-04-16T17:34:35.089Z,1.20
2023-04-16T17:37:03.057Z,1.15
2023-04-16T17:39:31.221Z,1.00
2023-04-16T17:42:01.288Z,1.25
2023-04-16T17:44:29.177Z,0.95
2023-04-16T17:46:57.575Z,0.75
2023-04-16T17:49:25.778Z,0.80
2023-04-16T17:51:54.109Z,1.17
2023-04-16T17:54:25.033Z,0.55
2023-04-16T17:56:55.519Z,0.90
2023-04-16T17:59:23.890Z,1.10
2023-04-16T18:01:51.766Z,0.88
2023-04-16T18:04:19.862Z,1.38
2023-04-16T18:06:47.876Z,1.80
2023-04-16T18:09:15.838Z,1.50
2023-04-16T18:11:43.764Z,1.85
2023-04-16T18:14:16.608Z,1.55
2023-04-16T18:16:46.822Z,1.10
2023-04-16T18:19:16.055Z,1.30
2023-04-16T18:21:44.084Z,1.30
2023-04-16T18:24:12.248Z,1.83
2023-04-16T18:26:41.295Z,1.80
2023-04-16T18:29:09.388Z,1.40
2023-04-16T18:31:37.483Z,1.77
2023-04-16T18:34:05.912Z,1.90
2023-04-16T18:36:34.332Z,1.95
2023-04-16T18:39:03.245Z,1.83
2023-04-16T18:41:31.797Z,2.10
2023-04-16T18:44:02.749Z,1.70
2023-04-16T18:46:30.964Z,2.08
2023-04-16T18:49:01.616Z,1.85
2023-04-16T18:51:29.677Z,1.85
2023-04-16T18:53:58.128Z,1.35
2023-04-16T18:56:29.058Z,1.25
2023-04-16T18:58:57.112Z,1.38
2023-04-16T19:01:25.232Z,1.85
2023-04-16T19:03:53.202Z,1.80
2023-04-16T19:06:21.082Z,1.75
2023-04-16T19:08:48.920Z,1.80
2023-04-16T19:11:16.779Z,1.73
2023-04-16T19:13:44.916Z,1.58
2023-04-16T19:16:12.837Z,1.60
2023-04-16T19:18:41.710Z,1.95
2023-04-16T19:21:11.083Z,1.67
2023-04-16T19:23:39.096Z,1.77
2023-04-16T19:26:06.883Z,2.00
2023-04-16T19:28:34.817Z,1.60
2023-04-16T19:31:02.823Z,2.22
2023-04-16T19:33:32.286Z,2.10
2023-04-16T19:36:00.766Z,1.92
2023-04-16T19:38:29.157Z,2.13
2023-04-16T19:40:59.656Z,2.15
2023-04-16T19:43:30.988Z,2.40
2023-04-16T19:45:59.390Z,2.40
2023-04-16T19:48:28.962Z,2.17
2023-04-16T19:50:56.960Z,2.17
2023-04-16T19:53:25.269Z,2.50
2023-04-16T19:55:53.085Z,2.58
2023-04-16T19:58:20.926Z,2.25
2023-04-16T20:00:48.838Z,2.40
2023-04-16T20:03:16.783Z,2.15
2023-04-16T20:05:48.900Z,2.35
2023-04-16T20:08:16.957Z,2.45
2023-04-16T20:10:45.450Z,2.80
2023-04-16T20:13:13.878Z,2.50
2023-04-16T20:15:42.019Z,2.58
2023-04-16T20:18:09.917Z,2.50
2023-04-16T20:20:38.208Z,2.67
2023-04-16T20:23:06.058Z,2.35
2023-04-16T20:25:33.967Z,2.42
2023-04-16T20:28:03.501Z,2.13
2023-04-16T20:30:38.799Z,2.05
2023-04-16T20:33:07.852Z,2.40
2023-04-16T20:35:36.854Z,2.33
2023-04-16T20:38:04.699Z,2.60
2023-04-16T20:40:32.588Z,2.33
2023-04-16T20:43:00.535Z,1.52
2023-04-16T20:45:41.246Z,2.05
2023-04-16T20:48:09.420Z,1.63
2023-04-16T20:50:37.593Z,1.63
2023-04-16T20:53:05.434Z,1.63
2023-04-16T20:55:33.253Z,1.80
2023-04-16T20:58:01.208Z,1.83
2023-04-16T21:00:29.541Z,1.67
2023-04-16T21:02:57.577Z,1.90
2023-04-16T21:05:26.749Z,1.73
2023-04-16T21:07:55.835Z,2.20
2023-04-16T21:10:23.847Z,1.95
2023-04-16T21:12:53.030Z,1.80
2023-04-16T21:15:21.008Z,2.08
2023-04-16T21:17:49.066Z,1.80
2023-04-16T21:20:17.023Z,1.80
2023-04-16T21:22:44.995Z,2.30
2023-04-16T21:25:12.969Z,2.03
2023-04-16T21:27:40.785Z,2.10
2023-04-16T21:30:09.493Z,2.20
2023-04-16T21:32:37.447Z,1.83
2023-04-16T21:35:06.267Z,2.05
2023-04-16T21:37:34.229Z,2.30
2023-04-16T21:40:02.747Z,2.80
2023-04-16T21:42:31.635Z,2.13
2023-04-16T21:44:59.621Z,2.33
2023-04-16T21:47:27.503Z,2.67
2023-04-16T21:49:55.553Z,2.20
2023-04-16T21:52:23.376Z,2.47
2023-04-16T21:54:51.367Z,2.38
2023-04-16T21:57:24.248Z,2.15
2023-04-16T21:59:52.187Z,2.58
2023-04-16T22:02:20.340Z,2.67
2023-04-16T22:04:48.875Z,2.53
2023-04-16T22:07:17.153Z,2.30
2023-04-16T22:09:45.093Z,2.28
2023-04-16T22:12:12.965Z,3.00
2023-04-16T22:14:49.097Z,3.03
2023-04-16T22:17:27.821Z,3.40
2023-04-16T22:19:55.682Z,3.17
2023-04-16T22:22:23.590Z,7.07
2023-04-16T22:24:51.595Z,3.30
2023-04-16T22:27:19.459Z,3.17
2023-04-16T22:29:47.318Z,3.10
2023-04-16T22:32:15.705Z,3.33
2023-04-16T22:34:43.608Z,3.25
2023-04-16T22:37:11.528Z,3.35
2023-04-16T22:39:39.469Z,3.50
2023-04-16T22:42:07.535Z,3.50
2023-04-16T22:44:37.660Z,3.50
2023-04-16T22:47:05.614Z,3.35
2023-04-16T22:49:36.614Z,3.22
2023-04-16T22:52:04.532Z,3.85
2023-04-16T22:54:32.703Z,3.80
2023-04-16T22:57:01.171Z,3.22
2023-04-16T22:59:29.026Z,3.10
2023-04-16T23:01:56.932Z,3.72
2023-04-16T23:04:24.953Z,3.40
2023-04-16T23:06:52.879Z,3.30
2023-04-16T23:09:22.643Z,3.85
2023-04-16T23:11:50.563Z,3.38
2023-04-16T23:14:18.799Z,3.60
2023-04-16T23:16:46.671Z,3.72
2023-04-16T23:19:15.887Z,3.90
2023-04-16T23:21:43.903Z,4.13
2023-04-16T23:24:12.409Z,3.78
2023-04-16T23:26:40.361Z,3.92
2023-04-16T23:29:08.382Z,4.10
2023-04-16T23:31:36.548Z,3.78
2023-04-16T23:34:04.563Z,3.70
2023-04-16T23:36:32.538Z,3.40
2023-04-16T23:39:00.407Z,4.10
2023-04-16T23:41:28.273Z,3.63
2023-04-16T23:43:56.113Z,3.35
2023-04-16T23:46:23.965Z,3.70
2023-04-16T23:48:52.855Z,3.65
2023-04-16T23:51:20.850Z,4.03
2023-04-16T23:53:48.681Z,3.50
2023-04-16T23:56:16.800Z,3.60
2023-04-16T23:58:44.647Z,3.67
